Date,TemperatureHighF,TemperatureAvgF,TemperatureLowF,DewpointHighF,DewpointAvgF,DewpointLowF,HumidityHigh,HumidityAvg,HumidityLow,PressureMaxIn,PressureMinIn,WindSpeedMaxMPH,WindSpeedAvgMPH,GustSpeedMaxMPH,PrecipitationSumIn
2013-3-1,25.7,17.4,9.4,-99.9,-99.9,-99.9,89,74,59,0.00,40.00,0,-999,0,0.00
2013-3-2,25.7,17.4,6.3,-99.9,-99.9,-99.9,87,80,70,0.00,40.00,0,-999,0,0.00
2013-3-3,30.9,26.9,22.4,-99.9,-99.9,-99.9,90,75,62,0.00,40.00,0,-999,0,0.00
2013-3-4,30.2,25.0,22.3,-99.9,-99.9,-99.9,100,89,60,0.00,40.00,0,-999,0,0.00
2013-3-5,27.2,22.5,20.2,-99.9,-99.9,-99.9,100,93,79,0.00,40.00,0,-999,0,0.00
2013-3-6,26.8,20.1,10.5,-99.9,-99.9,-99.9,100,88,70,0.00,40.00,0,-999,0,0.00
2013-3-7,29.4,20.9,9.4,-99.9,-99.9,-99.9,99,82,66,0.00,40.00,0,-999,0,0.00
2013-3-8,31.7,25.2,20.6,-99.9,-99.9,-99.9,98,87,69,0.00,40.00,0,-999,0,0.00
2013-3-9,34.1,25.9,20.0,-99.9,-99.9,-99.9,92,81,61,0.00,40.00,0,-999,0,0.00
2013-3-10,28.4,22.4,15.5,-99.9,-99.9,-99.9,91,75,54,0.00,40.00,0,-999,0,0.00
2013-3-11,27.3,18.7,9.2,-99.9,-99.9,-99.9,92,78,57,0.00,40.00,0,-999,0,0.00
2013-3-12,30.0,21.5,13.1,-99.9,-99.9,-99.9,91,79,69,0.00,40.00,0,-999,0,0.00
2013-3-13,21.2,13.3,-1.0,-99.9,-99.9,-99.9,88,75,54,0.00,40.00,0,-999,0,0.00
2013-3-14,34.8,25.4,16.4,-99.9,-99.9,-99.9,96,80,63,0.00,40.00,0,-999,0,0.00
2013-3-15,16.2,9.0,5.1,-99.9,-99.9,-99.9,87,75,64,0.00,40.00,0,-999,0,0.00
2013-3-16,18.4,7.5,-1.2,-99.9,-99.9,-99.9,90,74,58,0.00,40.00,0,-999,0,0.00
2013-3-17,15.2,4.3,-8.6,-99.9,-99.9,-99.9,98,80,56,0.00,40.00,0,-999,0,0.00
2013-3-18,20.6,15.9,7.4,-99.9,-99.9,-99.9,100,92,81,0.00,40.00,0,-999,0,0.00
2013-3-19,21.0,10.4,-1.5,-99.9,-99.9,-99.9,84,69,54,0.00,40.00,0,-999,0,0.00
2013-3-20,23.0,12.1,0.3,-99.9,-99.9,-99.9,82,68,47,0.00,40.00,0,-999,0,0.00
2013-3-21,26.8,15.4,3.1,-99.9,-99.9,-99.9,89,73,53,0.00,40.00,0,-999,0,0.00
2013-3-22,31.4,19.4,4.9,-99.9,-99.9,-99.9,89,76,61,0.00,40.00,0,-999,0,0.00
2013-3-23,35.5,23.2,9.3,-99.9,-99.9,-99.9,95,79,61,0.00,40.00,0,-999,0,0.00
2013-3-24,35.3,27.6,21.4,-99.9,-99.9,-99.9,86,77,58,0.00,40.00,0,-999,0,0.00
2013-3-25,36.3,27.3,21.0,-99.9,-99.9,-99.9,88,78,56,0.00,40.00,0,-999,0,0.00
2013-3-26,33.0,22.0,10.1,-99.9,-99.9,-99.9,92,80,56,0.00,40.00,0,-999,0,0.00
2013-3-27,32.5,21.8,6.5,-99.9,-99.9,-99.9,94,78,61,0.00,40.00,0,-999,0,0.00
2013-3-28,38.6,27.4,16.0,-99.9,-99.9,-99.9,98,82,58,0.00,40.00,0,-999,0,0.00
2013-3-29,32.7,25.2,19.2,-99.9,-99.9,-99.9,100,97,82,0.00,40.00,0,-999,0,0.00
2013-3-30,45.0,33.8,21.1,-99.9,-99.9,-99.9,100,81,58,0.00,40.00,0,-999,0,0.00
2013-3-31,32.3,25.3,18.5,-99.9,-99.9,-99.9,98,74,57,0.00,40.00,0,-999,0,0.00